CKS243 KMIA-KCVG
Flight info
| Callsign | CKS243 |
|---|---|
| Flight time | 2h 6m |
| Altitude | 37000 |
| Route | ALTNN2 DUCEN/N0475F390 Q87 VIYAP Q69 GURGE/N0474F380 Q93 FISHO/N0473F390 Q93 QUIWE/N0472F380 SPA CUBIM JAKIE7 |
| Aircraft | B77L/H-SDE1E2E3FGHIJ2J3J4J5M1RWXY/LB1D1 |
Departure
| Time | 2026-05-05 01:03 |
|---|---|
| Airport | Miami International Airport (KMIA) |
Arrival
| Time | 2026-05-05 03:09 |
|---|---|
| Airport | Cincinnati Northern Kentucky International Airport (KCVG) |
| Time | Latitude | Longitude | Altitude | Speed | Heading |
|---|---|---|---|---|---|
| 2026-05-05 00:26 | 25.79203 | -80.29322 | 20 ft | 0 kts | 209° |
| 2026-05-05 00:52 | 25.79222 | -80.29308 | 21 ft | 4 kts | 221° |
| 2026-05-05 00:52 | 25.79239 | -80.29286 | 21 ft | 4 kts | 247° |
| 2026-05-05 00:53 | 25.79243 | -80.29259 | 23 ft | 4 kts | 293° |
| 2026-05-05 00:53 | 25.79241 | -80.29254 | 23 ft | 2 kts | 298° |
| 2026-05-05 00:57 | 25.79241 | -80.29255 | 23 ft | 0 kts | 298° |
| 2026-05-05 00:58 | 25.79265 | -80.29294 | 21 ft | 14 kts | 304° |
| 2026-05-05 00:58 | 25.79324 | -80.29400 | 20 ft | 14 kts | 299° |
| 2026-05-05 00:58 | 25.79371 | -80.29454 | 20 ft | 8 kts | 343° |
| 2026-05-05 00:58 | 25.79444 | -80.29460 | 20 ft | 14 kts | 358° |
| 2026-05-05 00:59 | 25.79559 | -80.29461 | 19 ft | 17 kts | 359° |
| 2026-05-05 00:59 | 25.79661 | -80.29485 | 19 ft | 16 kts | 327° |
| 2026-05-05 00:59 | 25.79733 | -80.29602 | 19 ft | 20 kts | 300° |
| 2026-05-05 00:59 | 25.79802 | -80.29737 | 19 ft | 20 kts | 299° |
| 2026-05-05 01:00 | 25.79871 | -80.29872 | 19 ft | 20 kts | 300° |
| 2026-05-05 01:00 | 25.79914 | -80.29956 | 18 ft | 4 kts | 300° |
| 2026-05-05 01:00 | 25.79916 | -80.29960 | 18 ft | 0 kts | 300° |
| 2026-05-05 01:01 | 25.79925 | -80.29977 | 18 ft | 9 kts | 300° |
| 2026-05-05 01:01 | 25.79967 | -80.30059 | 11 ft | 13 kts | 300° |
| 2026-05-05 01:01 | 25.80019 | -80.30124 | 19 ft | 10 kts | 342° |
| 2026-05-05 01:02 | 25.80069 | -80.30094 | 20 ft | 9 kts | 70° |
| 2026-05-05 01:02 | 25.80077 | -80.30010 | 17 ft | 18 kts | 87° |
| 2026-05-05 01:02 | 25.80089 | -80.29732 | 18 ft | 61 kts | 87° |
| 2026-05-05 01:02 | 25.80120 | -80.28968 | 26 ft | 135 kts | 87° |
| 2026-05-05 01:03 | 25.80184 | -80.27757 | 305 ft | 165 kts | 85° |
| 2026-05-05 01:03 | 25.80269 | -80.26453 | 987 ft | 175 kts | 84° |
| 2026-05-05 01:03 | 25.80353 | -80.25071 | 1710 ft | 184 kts | 86° |
| 2026-05-05 01:03 | 25.80418 | -80.23575 | 2171 ft | 210 kts | 87° |
| 2026-05-05 01:04 | 25.80478 | -80.21824 | 2483 ft | 242 kts | 87° |
| 2026-05-05 01:04 | 25.80951 | -80.18015 | 4064 ft | 260 kts | 60° |
| 2026-05-05 01:04 | 25.82209 | -80.16522 | 4799 ft | 273 kts | 30° |
| 2026-05-05 01:05 | 25.84007 | -80.15889 | 5754 ft | 272 kts | 3° |
| 2026-05-05 01:05 | 25.85920 | -80.15812 | 6517 ft | 278 kts | 360° |
| 2026-05-05 01:05 | 25.87849 | -80.15754 | 6964 ft | 278 kts | 359° |
| 2026-05-05 01:05 | 25.89763 | -80.15807 | 6996 ft | 275 kts | 344° |
| 2026-05-05 01:06 | 25.91587 | -80.16453 | 7319 ft | 279 kts | 338° |
| 2026-05-05 01:06 | 25.93460 | -80.17144 | 8155 ft | 286 kts | 340° |
| 2026-05-05 01:06 | 25.95369 | -80.17811 | 9100 ft | 289 kts | 339° |
| 2026-05-05 01:06 | 25.97298 | -80.18481 | 10017 ft | 293 kts | 339° |
| 2026-05-05 01:07 | 25.99286 | -80.19136 | 10657 ft | 307 kts | 343° |
| 2026-05-05 01:07 | 26.01512 | -80.19506 | 10896 ft | 340 kts | 351° |
| 2026-05-05 01:07 | 26.03974 | -80.19717 | 11132 ft | 369 kts | 353° |
| 2026-05-05 01:07 | 26.06583 | -80.19909 | 11826 ft | 381 kts | 352° |
| 2026-05-05 01:08 | 26.09254 | -80.20126 | 12780 ft | 387 kts | 352° |
| 2026-05-05 01:08 | 26.11952 | -80.20374 | 13845 ft | 390 kts | 351° |
| 2026-05-05 01:08 | 26.14670 | -80.20645 | 14746 ft | 394 kts | 350° |
| 2026-05-05 01:08 | 26.17420 | -80.20930 | 15651 ft | 398 kts | 349° |
| 2026-05-05 01:09 | 26.20194 | -80.21217 | 16527 ft | 403 kts | 349° |
| 2026-05-05 01:09 | 26.23003 | -80.21481 | 17419 ft | 408 kts | 349° |
| 2026-05-05 01:09 | 26.25850 | -80.21732 | 18289 ft | 413 kts | 350° |
| 2026-05-05 01:09 | 26.28729 | -80.21982 | 19048 ft | 417 kts | 350° |
| 2026-05-05 01:10 | 26.31640 | -80.22238 | 19787 ft | 422 kts | 350° |
| 2026-05-05 01:10 | 26.34582 | -80.22500 | 20523 ft | 426 kts | 349° |
| 2026-05-05 01:10 | 26.37550 | -80.22767 | 21254 ft | 430 kts | 349° |
| 2026-05-05 01:10 | 26.40547 | -80.23055 | 21979 ft | 434 kts | 349° |
| 2026-05-05 01:11 | 26.43569 | -80.23370 | 22674 ft | 439 kts | 348° |
| 2026-05-05 01:11 | 26.46625 | -80.23693 | 23371 ft | 443 kts | 348° |
| 2026-05-05 01:11 | 26.49713 | -80.24015 | 23971 ft | 448 kts | 348° |
| 2026-05-05 01:11 | 26.52823 | -80.24336 | 24581 ft | 451 kts | 348° |
| 2026-05-05 01:12 | 26.55954 | -80.24658 | 25252 ft | 453 kts | 348° |
| 2026-05-05 01:12 | 26.59085 | -80.25070 | 25898 ft | 453 kts | 345° |
| 2026-05-05 01:12 | 26.62203 | -80.25619 | 26507 ft | 455 kts | 344° |
| 2026-05-05 01:12 | 26.65340 | -80.26190 | 27095 ft | 459 kts | 344° |
| 2026-05-05 01:13 | 26.68502 | -80.26737 | 27685 ft | 462 kts | 345° |
| 2026-05-05 01:13 | 26.71633 | -80.27342 | 28251 ft | 460 kts | 340° |
| 2026-05-05 01:13 | 26.74660 | -80.28444 | 28747 ft | 457 kts | 332° |
| 2026-05-05 01:13 | 26.77611 | -80.29790 | 29278 ft | 459 kts | 331° |
| 2026-05-05 01:14 | 26.80580 | -80.31150 | 29823 ft | 463 kts | 332° |
| 2026-05-05 01:14 | 26.83586 | -80.32478 | 30307 ft | 466 kts | 333° |
| 2026-05-05 01:14 | 26.86618 | -80.33768 | 30849 ft | 466 kts | 333° |
| 2026-05-05 01:14 | 26.89652 | -80.35034 | 31463 ft | 464 kts | 333° |
| 2026-05-05 01:15 | 26.92669 | -80.36290 | 32110 ft | 461 kts | 333° |
| 2026-05-05 01:15 | 26.95667 | -80.37533 | 32738 ft | 458 kts | 334° |
| 2026-05-05 01:15 | 26.98663 | -80.38744 | 33302 ft | 457 kts | 334° |
| 2026-05-05 01:15 | 27.01655 | -80.39941 | 33840 ft | 456 kts | 334° |
| 2026-05-05 01:16 | 27.04644 | -80.41138 | 34340 ft | 455 kts | 334° |
| 2026-05-05 01:16 | 27.07611 | -80.42333 | 34835 ft | 452 kts | 334° |
| 2026-05-05 01:16 | 27.10560 | -80.43540 | 35344 ft | 449 kts | 333° |
| 2026-05-05 01:16 | 27.13457 | -80.44797 | 35820 ft | 446 kts | 332° |
| 2026-05-05 01:17 | 27.16337 | -80.46083 | 36269 ft | 445 kts | 331° |
| 2026-05-05 01:17 | 27.19215 | -80.47376 | 36610 ft | 446 kts | 331° |
| 2026-05-05 01:17 | 27.22092 | -80.48663 | 37002 ft | 445 kts | 331° |
| 2026-05-05 01:17 | 27.24986 | -80.49952 | 37023 ft | 450 kts | 331° |
| 2026-05-05 01:18 | 27.30798 | -80.52522 | 37031 ft | 446 kts | 331° |
| 2026-05-05 01:18 | 27.36524 | -80.55053 | 37022 ft | 438 kts | 331° |
| 2026-05-05 01:19 | 27.42230 | -80.57406 | 37039 ft | 435 kts | 333° |
| 2026-05-05 01:19 | 27.47938 | -80.59629 | 37043 ft | 434 kts | 333° |
| 2026-05-05 01:20 | 27.53640 | -80.61864 | 37058 ft | 435 kts | 333° |
| 2026-05-05 01:20 | 27.59360 | -80.64134 | 37043 ft | 437 kts | 333° |
| 2026-05-05 01:21 | 27.65070 | -80.66410 | 37045 ft | 439 kts | 333° |
| 2026-05-05 01:21 | 27.70849 | -80.68718 | 37047 ft | 441 kts | 333° |
| 2026-05-05 01:22 | 27.76651 | -80.71036 | 37081 ft | 443 kts | 333° |
| 2026-05-05 01:22 | 27.82480 | -80.73368 | 37069 ft | 445 kts | 333° |
| 2026-05-05 01:23 | 27.88320 | -80.75705 | 37058 ft | 445 kts | 333° |
| 2026-05-05 01:23 | 27.94161 | -80.78046 | 37052 ft | 445 kts | 333° |
| 2026-05-05 01:24 | 27.99996 | -80.80387 | 37055 ft | 445 kts | 333° |
| 2026-05-05 01:24 | 28.05818 | -80.82726 | 37067 ft | 444 kts | 333° |
| 2026-05-05 01:25 | 28.11644 | -80.85071 | 37067 ft | 445 kts | 333° |
| 2026-05-05 01:25 | 28.17478 | -80.87422 | 37057 ft | 445 kts | 333° |
| 2026-05-05 01:26 | 28.23323 | -80.89779 | 37062 ft | 446 kts | 333° |
| 2026-05-05 01:26 | 28.29167 | -80.92137 | 37079 ft | 445 kts | 333° |
| 2026-05-05 01:27 | 28.34982 | -80.94485 | 37072 ft | 442 kts | 333° |
| 2026-05-05 01:27 | 28.40774 | -80.96829 | 37087 ft | 441 kts | 333° |
| 2026-05-05 01:28 | 28.46555 | -80.99171 | 37080 ft | 441 kts | 333° |
| 2026-05-05 01:28 | 28.52325 | -81.01512 | 37080 ft | 440 kts | 333° |
| 2026-05-05 01:29 | 28.58096 | -81.03856 | 37079 ft | 440 kts | 333° |
| 2026-05-05 01:29 | 28.63871 | -81.06204 | 37079 ft | 441 kts | 333° |
| 2026-05-05 01:30 | 28.69655 | -81.08559 | 37082 ft | 443 kts | 333° |
| 2026-05-05 01:30 | 28.75471 | -81.10930 | 37081 ft | 445 kts | 333° |
| 2026-05-05 01:31 | 28.81306 | -81.13311 | 37085 ft | 446 kts | 333° |
| 2026-05-05 01:31 | 28.87164 | -81.15703 | 37091 ft | 447 kts | 333° |
| 2026-05-05 01:32 | 28.93025 | -81.18099 | 37090 ft | 448 kts | 333° |
| 2026-05-05 01:32 | 28.98896 | -81.20504 | 37116 ft | 449 kts | 333° |
| 2026-05-05 01:33 | 29.04776 | -81.22914 | 37106 ft | 449 kts | 333° |
| 2026-05-05 01:33 | 29.10652 | -81.25325 | 37100 ft | 449 kts | 333° |
| 2026-05-05 01:34 | 29.16521 | -81.27737 | 37099 ft | 448 kts | 333° |
| 2026-05-05 01:34 | 29.22305 | -81.30115 | 37092 ft | 440 kts | 333° |
| 2026-05-05 01:35 | 29.28074 | -81.32358 | 37075 ft | 444 kts | 341° |
| 2026-05-05 01:35 | 29.34364 | -81.32842 | 37149 ft | 460 kts | 350° |
| 2026-05-05 01:36 | 29.37573 | -81.32975 | 37401 ft | 463 kts | 350° |
| 2026-05-05 01:36 | 29.39744 | -81.33071 | 37647 ft | 462 kts | 349° |
| 2026-05-05 01:36 | 29.42956 | -81.33226 | 38032 ft | 461 kts | 349° |
| 2026-05-05 01:36 | 29.46162 | -81.33396 | 38364 ft | 462 kts | 349° |
| 2026-05-05 01:37 | 29.49372 | -81.33579 | 38668 ft | 462 kts | 349° |
| 2026-05-05 01:37 | 29.52582 | -81.33768 | 38941 ft | 462 kts | 349° |
| 2026-05-05 01:37 | 29.55809 | -81.33962 | 39048 ft | 467 kts | 349° |
| 2026-05-05 01:37 | 29.59060 | -81.34159 | 39082 ft | 468 kts | 349° |
| 2026-05-05 01:38 | 29.65528 | -81.34540 | 39086 ft | 462 kts | 349° |
| 2026-05-05 01:38 | 29.71922 | -81.34916 | 39097 ft | 459 kts | 349° |
| 2026-05-05 01:39 | 29.78283 | -81.35296 | 39107 ft | 457 kts | 349° |
| 2026-05-05 01:39 | 29.84636 | -81.35676 | 39145 ft | 457 kts | 349° |
| 2026-05-05 01:40 | 29.91005 | -81.36056 | 39121 ft | 458 kts | 349° |
| 2026-05-05 01:40 | 29.97378 | -81.36437 | 39108 ft | 459 kts | 349° |
| 2026-05-05 01:41 | 30.03759 | -81.36817 | 39114 ft | 459 kts | 349° |
| 2026-05-05 01:41 | 30.10104 | -81.37197 | 39105 ft | 460 kts | 349° |
| 2026-05-05 01:42 | 30.16500 | -81.37578 | 39104 ft | 461 kts | 349° |
| 2026-05-05 01:42 | 30.22902 | -81.37951 | 39093 ft | 460 kts | 349° |
| 2026-05-05 01:43 | 30.29287 | -81.38323 | 39103 ft | 459 kts | 349° |
| 2026-05-05 01:43 | 30.35656 | -81.38697 | 39101 ft | 458 kts | 349° |
| 2026-05-05 01:44 | 30.42012 | -81.39071 | 39099 ft | 457 kts | 349° |
| 2026-05-05 01:44 | 30.48354 | -81.39439 | 39104 ft | 456 kts | 349° |
| 2026-05-05 01:45 | 30.54696 | -81.39781 | 39111 ft | 456 kts | 349° |
| 2026-05-05 01:45 | 30.61038 | -81.40117 | 39111 ft | 456 kts | 349° |
| 2026-05-05 01:46 | 30.67378 | -81.40457 | 39138 ft | 456 kts | 349° |
| 2026-05-05 01:46 | 30.73726 | -81.40800 | 39116 ft | 457 kts | 349° |
| 2026-05-05 01:47 | 30.80067 | -81.41143 | 39108 ft | 456 kts | 349° |
| 2026-05-05 01:47 | 30.86405 | -81.41487 | 39098 ft | 456 kts | 349° |
| 2026-05-05 01:48 | 30.92731 | -81.41830 | 39095 ft | 455 kts | 349° |
| 2026-05-05 01:48 | 30.99056 | -81.42174 | 39115 ft | 455 kts | 349° |
| 2026-05-05 01:49 | 31.05384 | -81.42518 | 39109 ft | 455 kts | 349° |
| 2026-05-05 01:49 | 31.11702 | -81.42863 | 39098 ft | 455 kts | 349° |
| 2026-05-05 01:50 | 31.17978 | -81.43205 | 39103 ft | 454 kts | 349° |
| 2026-05-05 01:50 | 31.24289 | -81.43550 | 39156 ft | 454 kts | 349° |
| 2026-05-05 01:51 | 31.30636 | -81.43719 | 39119 ft | 457 kts | 351° |
| 2026-05-05 01:51 | 31.36999 | -81.43707 | 39105 ft | 457 kts | 351° |
| 2026-05-05 01:52 | 31.43355 | -81.43730 | 39104 ft | 459 kts | 353° |
| 2026-05-05 01:52 | 31.49766 | -81.42725 | 39108 ft | 471 kts | 4° |
| 2026-05-05 01:53 | 31.56113 | -81.40444 | 39105 ft | 481 kts | 11° |
| 2026-05-05 01:53 | 31.62406 | -81.37771 | 39100 ft | 481 kts | 11° |
| 2026-05-05 01:54 | 31.68702 | -81.35121 | 39091 ft | 480 kts | 11° |
| 2026-05-05 01:54 | 31.75004 | -81.32513 | 39093 ft | 480 kts | 11° |
| 2026-05-05 01:55 | 31.81309 | -81.29913 | 39107 ft | 481 kts | 11° |
| 2026-05-05 01:55 | 31.87630 | -81.27297 | 39069 ft | 482 kts | 11° |
| 2026-05-05 01:56 | 31.93968 | -81.24765 | 39075 ft | 477 kts | 6° |
| 2026-05-05 01:56 | 32.00419 | -81.23415 | 39075 ft | 465 kts | 355° |
| 2026-05-05 01:57 | 32.06863 | -81.23115 | 39139 ft | 464 kts | 354° |
| 2026-05-05 01:57 | 32.13289 | -81.22872 | 39109 ft | 466 kts | 354° |
| 2026-05-05 01:58 | 32.19778 | -81.22581 | 39106 ft | 467 kts | 354° |
| 2026-05-05 01:58 | 32.26285 | -81.22268 | 39105 ft | 468 kts | 355° |
| 2026-05-05 01:59 | 32.32794 | -81.21952 | 39125 ft | 468 kts | 355° |
| 2026-05-05 01:59 | 32.39316 | -81.21638 | 39103 ft | 469 kts | 355° |
| 2026-05-05 02:00 | 32.45832 | -81.21356 | 39092 ft | 466 kts | 352° |
| 2026-05-05 02:00 | 32.52207 | -81.22050 | 39092 ft | 454 kts | 341° |
| 2026-05-05 02:01 | 32.58374 | -81.23615 | 39132 ft | 453 kts | 341° |
| 2026-05-05 02:01 | 32.64537 | -81.25205 | 39102 ft | 454 kts | 341° |
| 2026-05-05 02:02 | 32.70715 | -81.26769 | 39092 ft | 454 kts | 341° |
| 2026-05-05 02:02 | 32.76901 | -81.28320 | 39091 ft | 454 kts | 342° |
| 2026-05-05 02:03 | 32.83080 | -81.29867 | 39093 ft | 453 kts | 342° |
| 2026-05-05 02:03 | 32.89252 | -81.31416 | 39098 ft | 453 kts | 342° |
| 2026-05-05 02:04 | 32.95377 | -81.32957 | 39090 ft | 453 kts | 342° |
| 2026-05-05 02:04 | 33.01542 | -81.34509 | 39094 ft | 453 kts | 342° |
| 2026-05-05 02:05 | 33.07706 | -81.36064 | 39087 ft | 453 kts | 342° |
| 2026-05-05 02:05 | 33.13868 | -81.37621 | 39098 ft | 453 kts | 342° |
| 2026-05-05 02:06 | 33.20035 | -81.39181 | 39102 ft | 453 kts | 342° |
| 2026-05-05 02:06 | 33.26198 | -81.40742 | 39104 ft | 453 kts | 342° |
| 2026-05-05 02:07 | 33.32468 | -81.41875 | 39109 ft | 458 kts | 347° |
| 2026-05-05 02:07 | 33.38808 | -81.42679 | 39118 ft | 458 kts | 348° |
| 2026-05-05 02:08 | 33.45160 | -81.43491 | 39094 ft | 459 kts | 348° |
| 2026-05-05 02:08 | 33.51507 | -81.44328 | 39076 ft | 459 kts | 347° |
| 2026-05-05 02:09 | 33.57850 | -81.45177 | 39066 ft | 459 kts | 347° |
| 2026-05-05 02:09 | 33.64194 | -81.46028 | 39060 ft | 459 kts | 347° |
| 2026-05-05 02:10 | 33.70534 | -81.46879 | 39065 ft | 459 kts | 348° |
| 2026-05-05 02:10 | 33.76876 | -81.47731 | 39058 ft | 459 kts | 348° |
| 2026-05-05 02:11 | 33.83221 | -81.48584 | 39058 ft | 459 kts | 348° |
| 2026-05-05 02:11 | 33.89557 | -81.49438 | 39059 ft | 458 kts | 348° |
| 2026-05-05 02:12 | 33.98876 | -81.51521 | 39061 ft | 449 kts | 337° |
| 2026-05-05 02:13 | 34.04815 | -81.53865 | 39055 ft | 449 kts | 336° |
| 2026-05-05 02:13 | 34.10755 | -81.56220 | 39056 ft | 449 kts | 337° |
| 2026-05-05 02:14 | 34.16706 | -81.58554 | 39087 ft | 450 kts | 337° |
| 2026-05-05 02:14 | 34.22620 | -81.60861 | 39113 ft | 450 kts | 337° |
| 2026-05-05 02:15 | 34.28586 | -81.63189 | 39104 ft | 451 kts | 337° |
| 2026-05-05 02:15 | 34.34552 | -81.65521 | 39098 ft | 451 kts | 337° |
| 2026-05-05 02:16 | 34.40512 | -81.67854 | 39103 ft | 450 kts | 337° |
| 2026-05-05 02:16 | 34.46453 | -81.70184 | 39080 ft | 449 kts | 337° |
| 2026-05-05 02:17 | 34.52396 | -81.72518 | 39063 ft | 449 kts | 337° |
| 2026-05-05 02:17 | 34.58327 | -81.74851 | 39057 ft | 448 kts | 337° |
| 2026-05-05 02:18 | 34.64254 | -81.77186 | 39074 ft | 447 kts | 337° |
| 2026-05-05 02:18 | 34.70176 | -81.79523 | 39057 ft | 447 kts | 337° |
| 2026-05-05 02:19 | 34.76098 | -81.81863 | 39060 ft | 448 kts | 337° |
| 2026-05-05 02:19 | 34.82023 | -81.84208 | 39053 ft | 448 kts | 337° |
| 2026-05-05 02:20 | 34.87943 | -81.86555 | 39056 ft | 447 kts | 337° |
| 2026-05-05 02:20 | 34.93864 | -81.88906 | 39055 ft | 447 kts | 337° |
| 2026-05-05 02:21 | 34.99780 | -81.91257 | 39073 ft | 447 kts | 337° |
| 2026-05-05 02:21 | 35.05600 | -81.93871 | 39053 ft | 443 kts | 331° |
| 2026-05-05 02:22 | 35.11180 | -81.97072 | 39042 ft | 443 kts | 330° |
| 2026-05-05 02:22 | 35.15807 | -81.99758 | 39039 ft | 443 kts | 330° |
| 2026-05-05 02:23 | 35.21385 | -82.02978 | 39043 ft | 443 kts | 330° |
| 2026-05-05 02:23 | 35.26971 | -82.06190 | 39056 ft | 444 kts | 330° |
| 2026-05-05 02:24 | 35.32566 | -82.09405 | 39056 ft | 444 kts | 330° |
| 2026-05-05 02:24 | 35.38164 | -82.12626 | 39055 ft | 445 kts | 330° |
| 2026-05-05 02:25 | 35.43763 | -82.15853 | 39048 ft | 445 kts | 330° |
| 2026-05-05 02:25 | 35.49360 | -82.19085 | 39045 ft | 445 kts | 330° |
| 2026-05-05 02:26 | 35.54956 | -82.22321 | 39038 ft | 445 kts | 330° |
| 2026-05-05 02:26 | 35.60552 | -82.25561 | 39022 ft | 445 kts | 330° |
| 2026-05-05 02:27 | 35.66145 | -82.28805 | 39005 ft | 444 kts | 330° |
| 2026-05-05 02:27 | 35.71731 | -82.32053 | 39019 ft | 444 kts | 330° |
| 2026-05-05 02:28 | 35.77327 | -82.35306 | 39020 ft | 445 kts | 330° |
| 2026-05-05 02:28 | 35.82929 | -82.38570 | 39020 ft | 445 kts | 330° |
| 2026-05-05 02:29 | 35.88523 | -82.41835 | 38989 ft | 445 kts | 330° |
| 2026-05-05 02:29 | 35.94074 | -82.45082 | 39007 ft | 444 kts | 330° |
| 2026-05-05 02:30 | 35.99655 | -82.48349 | 38979 ft | 443 kts | 330° |
| 2026-05-05 02:30 | 36.05225 | -82.51612 | 38993 ft | 444 kts | 330° |
| 2026-05-05 02:31 | 36.10798 | -82.54890 | 39008 ft | 443 kts | 330° |
| 2026-05-05 02:31 | 36.16370 | -82.58172 | 39003 ft | 444 kts | 330° |
| 2026-05-05 02:32 | 36.21948 | -82.61455 | 39011 ft | 444 kts | 330° |
| 2026-05-05 02:32 | 36.27528 | -82.64747 | 39000 ft | 444 kts | 330° |
| 2026-05-05 02:33 | 36.33119 | -82.68052 | 38999 ft | 445 kts | 330° |
| 2026-05-05 02:33 | 36.38715 | -82.71366 | 38989 ft | 446 kts | 330° |
| 2026-05-05 02:34 | 36.44315 | -82.74687 | 38981 ft | 446 kts | 330° |
| 2026-05-05 02:34 | 36.49921 | -82.78016 | 38967 ft | 446 kts | 330° |
| 2026-05-05 02:35 | 36.55524 | -82.81349 | 38967 ft | 447 kts | 330° |
| 2026-05-05 02:35 | 36.61134 | -82.84692 | 38959 ft | 448 kts | 330° |
| 2026-05-05 02:36 | 36.66772 | -82.88058 | 38963 ft | 448 kts | 330° |
| 2026-05-05 02:36 | 36.72380 | -82.91411 | 38959 ft | 449 kts | 330° |
| 2026-05-05 02:37 | 36.78009 | -82.94782 | 38958 ft | 449 kts | 330° |
| 2026-05-05 02:37 | 36.83643 | -82.98162 | 38964 ft | 449 kts | 330° |
| 2026-05-05 02:38 | 36.89232 | -83.01644 | 38958 ft | 447 kts | 327° |
| 2026-05-05 02:38 | 36.94621 | -83.05513 | 38947 ft | 447 kts | 326° |
| 2026-05-05 02:39 | 36.99988 | -83.09428 | 38949 ft | 447 kts | 326° |
| 2026-05-05 02:39 | 37.05362 | -83.13338 | 38958 ft | 447 kts | 326° |
| 2026-05-05 02:40 | 37.10743 | -83.17242 | 38949 ft | 447 kts | 326° |
| 2026-05-05 02:40 | 37.16080 | -83.21115 | 38941 ft | 446 kts | 326° |
| 2026-05-05 02:41 | 37.21449 | -83.25018 | 38934 ft | 446 kts | 326° |
| 2026-05-05 02:41 | 37.26809 | -83.28920 | 38941 ft | 445 kts | 326° |
| 2026-05-05 02:42 | 37.32163 | -83.32823 | 38953 ft | 445 kts | 326° |
| 2026-05-05 02:42 | 37.37517 | -83.36735 | 38939 ft | 445 kts | 326° |
| 2026-05-05 02:43 | 37.42863 | -83.40647 | 38936 ft | 444 kts | 326° |
| 2026-05-05 02:43 | 37.48204 | -83.44560 | 38916 ft | 444 kts | 326° |
| 2026-05-05 02:43 | 37.50899 | -83.46540 | 38223 ft | 454 kts | 326° |
| 2026-05-05 02:44 | 37.53627 | -83.48545 | 37529 ft | 453 kts | 326° |
| 2026-05-05 02:44 | 37.56340 | -83.50538 | 36774 ft | 451 kts | 326° |
| 2026-05-05 02:44 | 37.59045 | -83.52525 | 36021 ft | 449 kts | 326° |
| 2026-05-05 02:44 | 37.61740 | -83.54510 | 35232 ft | 449 kts | 326° |
| 2026-05-05 02:45 | 37.64444 | -83.56502 | 34387 ft | 450 kts | 326° |
| 2026-05-05 02:45 | 37.67145 | -83.58495 | 33694 ft | 448 kts | 326° |
| 2026-05-05 02:45 | 37.69793 | -83.60448 | 33027 ft | 445 kts | 326° |
| 2026-05-05 02:45 | 37.72453 | -83.62411 | 32392 ft | 441 kts | 326° |
| 2026-05-05 02:46 | 37.75090 | -83.64359 | 31789 ft | 437 kts | 326° |
| 2026-05-05 02:46 | 37.77703 | -83.66292 | 31202 ft | 433 kts | 326° |
| 2026-05-05 02:46 | 37.80294 | -83.68212 | 30641 ft | 430 kts | 326° |
| 2026-05-05 02:46 | 37.82862 | -83.70116 | 30052 ft | 427 kts | 326° |
| 2026-05-05 02:47 | 37.85412 | -83.72008 | 29387 ft | 424 kts | 326° |
| 2026-05-05 02:47 | 37.87944 | -83.73888 | 28747 ft | 420 kts | 326° |
| 2026-05-05 02:47 | 37.90447 | -83.75747 | 28189 ft | 415 kts | 326° |
| 2026-05-05 02:47 | 37.92926 | -83.77590 | 27611 ft | 412 kts | 326° |
| 2026-05-05 02:48 | 37.95386 | -83.79421 | 27030 ft | 409 kts | 326° |
| 2026-05-05 02:48 | 37.97825 | -83.81239 | 26506 ft | 405 kts | 326° |
| 2026-05-05 02:48 | 38.00248 | -83.83046 | 25957 ft | 403 kts | 326° |
| 2026-05-05 02:48 | 38.02656 | -83.84843 | 25440 ft | 400 kts | 326° |
| 2026-05-05 02:49 | 38.05045 | -83.86626 | 24909 ft | 398 kts | 326° |
| 2026-05-05 02:49 | 38.07421 | -83.88401 | 24390 ft | 396 kts | 326° |
| 2026-05-05 02:49 | 38.09787 | -83.90171 | 23871 ft | 394 kts | 326° |
| 2026-05-05 02:49 | 38.12143 | -83.91934 | 23322 ft | 393 kts | 326° |
| 2026-05-05 02:50 | 38.14490 | -83.93693 | 22750 ft | 391 kts | 326° |
| 2026-05-05 02:50 | 38.16825 | -83.95442 | 22218 ft | 388 kts | 326° |
| 2026-05-05 02:50 | 38.19142 | -83.97180 | 21697 ft | 385 kts | 326° |
| 2026-05-05 02:50 | 38.21444 | -83.98907 | 21196 ft | 383 kts | 325° |
| 2026-05-05 02:51 | 38.23730 | -84.00623 | 20698 ft | 381 kts | 325° |
| 2026-05-05 02:51 | 38.26003 | -84.02332 | 20206 ft | 379 kts | 325° |
| 2026-05-05 02:51 | 38.28266 | -84.04035 | 19719 ft | 377 kts | 325° |
| 2026-05-05 02:51 | 38.30521 | -84.05733 | 19234 ft | 376 kts | 325° |
| 2026-05-05 02:52 | 38.32767 | -84.07426 | 18748 ft | 375 kts | 325° |
| 2026-05-05 02:52 | 38.35006 | -84.09115 | 18254 ft | 374 kts | 325° |
| 2026-05-05 02:52 | 38.37248 | -84.10807 | 17708 ft | 374 kts | 325° |
| 2026-05-05 02:52 | 38.39482 | -84.12493 | 17180 ft | 372 kts | 325° |
| 2026-05-05 02:53 | 38.41704 | -84.14171 | 16682 ft | 370 kts | 325° |
| 2026-05-05 02:53 | 38.43908 | -84.15829 | 16327 ft | 365 kts | 325° |
| 2026-05-05 02:53 | 38.46101 | -84.17425 | 15902 ft | 362 kts | 326° |
| 2026-05-05 02:53 | 38.48290 | -84.18999 | 15436 ft | 360 kts | 326° |
| 2026-05-05 02:54 | 38.50469 | -84.20568 | 14958 ft | 359 kts | 326° |
| 2026-05-05 02:54 | 38.52638 | -84.22136 | 14506 ft | 358 kts | 325° |
| 2026-05-05 02:54 | 38.54799 | -84.23703 | 14022 ft | 356 kts | 325° |
| 2026-05-05 02:54 | 38.56949 | -84.25265 | 13548 ft | 355 kts | 325° |
| 2026-05-05 02:55 | 38.59097 | -84.26825 | 13025 ft | 354 kts | 325° |
| 2026-05-05 02:55 | 38.61234 | -84.28377 | 12531 ft | 352 kts | 325° |
| 2026-05-05 02:55 | 38.63357 | -84.29920 | 12066 ft | 351 kts | 325° |
| 2026-05-05 02:55 | 38.65442 | -84.31441 | 11602 ft | 348 kts | 324° |
| 2026-05-05 02:56 | 38.67500 | -84.33054 | 11142 ft | 346 kts | 323° |
| 2026-05-05 02:56 | 38.69525 | -84.34706 | 10700 ft | 344 kts | 322° |
| 2026-05-05 02:56 | 38.71503 | -84.36331 | 10558 ft | 333 kts | 322° |
| 2026-05-05 02:56 | 38.73454 | -84.37924 | 10404 ft | 323 kts | 322° |
| 2026-05-05 02:57 | 38.75325 | -84.39446 | 10268 ft | 314 kts | 322° |
| 2026-05-05 02:57 | 38.77146 | -84.40926 | 10138 ft | 306 kts | 322° |
| 2026-05-05 02:57 | 38.78899 | -84.42351 | 9973 ft | 300 kts | 322° |
| 2026-05-05 02:57 | 38.80641 | -84.43772 | 9767 ft | 294 kts | 322° |
| 2026-05-05 02:58 | 38.82344 | -84.45153 | 9581 ft | 281 kts | 322° |
| 2026-05-05 02:58 | 38.83931 | -84.46435 | 9195 ft | 259 kts | 321° |
| 2026-05-05 02:58 | 38.85382 | -84.47603 | 9021 ft | 235 kts | 320° |
| 2026-05-05 02:58 | 38.86728 | -84.48696 | 8912 ft | 225 kts | 319° |
| 2026-05-05 02:59 | 38.88032 | -84.49759 | 8806 ft | 219 kts | 319° |
| 2026-05-05 02:59 | 38.89311 | -84.50804 | 8646 ft | 218 kts | 319° |
| 2026-05-05 02:59 | 38.90592 | -84.51851 | 8393 ft | 218 kts | 319° |
| 2026-05-05 02:59 | 38.91868 | -84.52892 | 8142 ft | 216 kts | 319° |
| 2026-05-05 03:00 | 38.93162 | -84.53840 | 7860 ft | 217 kts | 334° |
| 2026-05-05 03:00 | 38.94701 | -84.53941 | 7631 ft | 228 kts | 358° |
| 2026-05-05 03:00 | 38.96321 | -84.53760 | 7394 ft | 240 kts | 355° |
| 2026-05-05 03:00 | 38.98004 | -84.53617 | 7133 ft | 243 kts | 356° |
| 2026-05-05 03:01 | 38.99688 | -84.53470 | 6864 ft | 240 kts | 354° |
| 2026-05-05 03:01 | 39.01328 | -84.53425 | 6558 ft | 232 kts | 351° |
| 2026-05-05 03:01 | 39.02920 | -84.53427 | 6338 ft | 226 kts | 350° |
| 2026-05-05 03:01 | 39.04477 | -84.53429 | 6080 ft | 221 kts | 350° |
| 2026-05-05 03:02 | 39.05986 | -84.53428 | 5868 ft | 212 kts | 349° |
| 2026-05-05 03:02 | 39.07459 | -84.53426 | 5734 ft | 213 kts | 349° |
| 2026-05-05 03:02 | 39.08944 | -84.53422 | 5583 ft | 213 kts | 349° |
| 2026-05-05 03:02 | 39.10410 | -84.53414 | 5450 ft | 209 kts | 350° |
| 2026-05-05 03:03 | 39.11866 | -84.53409 | 5305 ft | 209 kts | 349° |
| 2026-05-05 03:03 | 39.13328 | -84.53405 | 5170 ft | 212 kts | 349° |
| 2026-05-05 03:03 | 39.14800 | -84.53526 | 4886 ft | 208 kts | 337° |
| 2026-05-05 03:03 | 39.16087 | -84.54142 | 4609 ft | 188 kts | 316° |
| 2026-05-05 03:04 | 39.17009 | -84.55182 | 4385 ft | 168 kts | 296° |
| 2026-05-05 03:04 | 39.17609 | -84.56421 | 4209 ft | 163 kts | 287° |
| 2026-05-05 03:04 | 39.17994 | -84.57784 | 3992 ft | 160 kts | 273° |
| 2026-05-05 03:04 | 39.18089 | -84.59177 | 3775 ft | 153 kts | 262° |
| 2026-05-05 03:05 | 39.17933 | -84.60496 | 3573 ft | 147 kts | 251° |
| 2026-05-05 03:05 | 39.17557 | -84.61700 | 3429 ft | 146 kts | 241° |
| 2026-05-05 03:05 | 39.16971 | -84.62770 | 3232 ft | 145 kts | 230° |
| 2026-05-05 03:05 | 39.16249 | -84.63594 | 3046 ft | 133 kts | 220° |
| 2026-05-05 03:06 | 39.15452 | -84.64174 | 2853 ft | 132 kts | 211° |
| 2026-05-05 03:06 | 39.14567 | -84.64527 | 2689 ft | 135 kts | 200° |
| 2026-05-05 03:06 | 39.13617 | -84.64644 | 2609 ft | 141 kts | 192° |
| 2026-05-05 03:06 | 39.12643 | -84.64651 | 2343 ft | 134 kts | 191° |
| 2026-05-05 03:07 | 39.11771 | -84.64643 | 2134 ft | 120 kts | 192° |
| 2026-05-05 03:07 | 39.10929 | -84.64650 | 1986 ft | 124 kts | 190° |
| 2026-05-05 03:07 | 39.10060 | -84.64643 | 1789 ft | 123 kts | 191° |
| 2026-05-05 03:07 | 39.09207 | -84.64662 | 1641 ft | 125 kts | 188° |
| 2026-05-05 03:08 | 39.08314 | -84.64692 | 1501 ft | 131 kts | 185° |
| 2026-05-05 03:08 | 39.07380 | -84.64694 | 1320 ft | 134 kts | 180° |
| 2026-05-05 03:08 | 39.06470 | -84.64663 | 1081 ft | 128 kts | 182° |
| 2026-05-05 03:08 | 39.05593 | -84.64665 | 930 ft | 127 kts | 182° |
| 2026-05-05 03:09 | 39.04715 | -84.64670 | 889 ft | 117 kts | 179° |
| 2026-05-05 03:09 | 39.04056 | -84.64675 | 886 ft | 72 kts | 180° |
| 2026-05-05 03:09 | 39.03706 | -84.64677 | 887 ft | 28 kts | 180° |
| 2026-05-05 03:09 | 39.03616 | -84.64682 | 888 ft | 18 kts | 185° |
| 2026-05-05 03:10 | 39.03465 | -84.64756 | 887 ft | 18 kts | 228° |
| 2026-05-05 03:10 | 39.03436 | -84.64843 | 885 ft | 13 kts | 264° |
| 2026-05-05 03:10 | 39.03435 | -84.64925 | 884 ft | 1 kts | 271° |
| 2026-05-05 03:10 | 39.03435 | -84.64934 | 884 ft | 2 kts | 268° |
| 2026-05-05 03:11 | 39.03433 | -84.64958 | 884 ft | 3 kts | 257° |
| 2026-05-05 03:11 | 39.03397 | -84.64993 | 883 ft | 8 kts | 194° |
| 2026-05-05 03:11 | 39.03320 | -84.64995 | 883 ft | 14 kts | 180° |
| 2026-05-05 03:11 | 39.03249 | -84.64995 | 883 ft | 15 kts | 180° |
| 2026-05-05 03:12 | 39.03143 | -84.64994 | 883 ft | 15 kts | 180° |
| 2026-05-05 03:12 | 39.03036 | -84.64995 | 883 ft | 15 kts | 180° |
| 2026-05-05 03:12 | 39.02971 | -84.65003 | 883 ft | 6 kts | 203° |
| 2026-05-05 03:12 | 39.02952 | -84.65049 | 883 ft | 6 kts | 269° |
| 2026-05-05 03:13 | 39.02952 | -84.65107 | 883 ft | 6 kts | 269° |
| 2026-05-05 03:13 | 39.02962 | -84.65156 | 883 ft | 6 kts | 321° |
| 2026-05-05 03:13 | 39.03004 | -84.65160 | 883 ft | 7 kts | 1° |
| 2026-05-05 03:13 | 39.03053 | -84.65159 | 883 ft | 8 kts | 1° |
| 2026-05-05 03:14 | 39.03105 | -84.65158 | 883 ft | 6 kts | 0° |
| 2026-05-05 03:14 | 39.03117 | -84.65158 | 883 ft | 0 kts | 0° |
| 2026-05-05 03:14 | 39.03121 | -84.65160 | 883 ft | 1 kts | 340° |
| 2026-05-05 03:14 | 39.03126 | -84.65169 | 883 ft | 1 kts | 302° |
| 2026-05-05 03:15 | 39.03124 | -84.65182 | 883 ft | 1 kts | 258° |
| 2026-05-05 03:15 | 39.03120 | -84.65196 | 883 ft | 2 kts | 259° |
| 2026-05-05 03:15 | 39.03124 | -84.65218 | 883 ft | 1 kts | 294° |
| 2026-05-05 03:15 | 39.03128 | -84.65231 | 883 ft | 2 kts | 295° |
| 2026-05-05 03:16 | 39.03132 | -84.65240 | 883 ft | 0 kts | 297° |